createdAt,value
2022-08-20T00:00:35.305Z,9.418333
2022-08-20T00:01:34.354Z,9.418320
2022-08-20T00:02:34.302Z,9.418267
2022-08-20T00:03:34.294Z,9.418259
2022-08-20T00:04:34.286Z,9.418273
2022-08-20T00:05:34.282Z,9.418290
2022-08-20T00:06:34.278Z,9.418315
2022-08-20T00:07:34.265Z,9.418291
2022-08-20T00:08:34.253Z,9.418295
2022-08-20T00:09:34.253Z,9.418279
2022-08-20T00:10:34.237Z,9.418281
2022-08-20T00:11:34.242Z,9.418237
2022-08-20T00:12:34.235Z,9.418290
2022-08-20T00:13:34.222Z,9.418358
2022-08-20T00:14:34.269Z,9.418243
2022-08-20T00:15:34.213Z,9.418250
2022-08-20T00:16:34.225Z,9.418330
2022-08-20T00:17:34.189Z,9.418287
2022-08-20T00:18:34.191Z,9.418308
2022-08-20T00:19:35.185Z,9.418293
2022-08-20T00:20:34.173Z,9.418287
2022-08-20T00:21:34.169Z,9.418384
2022-08-20T00:22:34.186Z,9.418345
2022-08-20T00:23:34.148Z,9.418326
2022-08-20T00:24:34.157Z,9.418235
2022-08-20T00:25:34.145Z,9.418282
2022-08-20T00:26:34.138Z,9.418273
2022-08-20T00:27:34.141Z,9.418259
2022-08-20T00:28:34.129Z,9.418216
2022-08-20T00:29:34.130Z,9.418263
2022-08-20T00:30:34.104Z,9.418267
2022-08-20T00:31:34.117Z,9.418300
2022-08-20T00:32:34.117Z,9.418276
2022-08-20T00:33:34.092Z,9.418218
2022-08-20T00:34:34.104Z,9.418254
2022-08-20T00:35:34.085Z,9.418261
2022-08-20T00:36:34.090Z,9.418260
2022-08-20T00:37:34.080Z,9.418261
2022-08-20T00:38:34.070Z,9.418253
2022-08-20T00:39:34.106Z,9.418236
2022-08-20T00:40:34.055Z,9.418230
2022-08-20T00:41:34.052Z,9.418208
2022-08-20T00:42:34.057Z,9.418224
2022-08-20T00:43:34.037Z,9.418253
2022-08-20T00:44:34.032Z,9.418299
2022-08-20T00:45:34.028Z,9.418287
2022-08-20T00:46:34.009Z,9.418274
2022-08-20T00:47:34.017Z,9.418246
2022-08-20T00:48:34.021Z,9.418237
2022-08-20T00:49:33.984Z,9.418242
2022-08-20T00:50:33.981Z,9.418242
2022-08-20T00:51:33.985Z,9.418271
2022-08-20T00:52:33.993Z,9.418246
2022-08-20T00:53:33.976Z,9.418256
2022-08-20T00:54:33.962Z,9.418224
2022-08-20T00:55:33.958Z,9.418217
2022-08-20T00:56:33.955Z,9.418208
2022-08-20T00:57:43.880Z,9.418194
2022-08-20T00:58:34.947Z,9.418214
2022-08-20T00:59:33.934Z,9.418254
2022-08-20T01:00:33.930Z,9.418296
2022-08-20T01:01:33.966Z,9.418292
2022-08-20T01:02:34.919Z,9.418290
2022-08-20T01:03:33.912Z,9.418274
2022-08-20T01:04:33.902Z,9.418223
2022-08-20T01:05:33.894Z,9.418279
2022-08-20T01:06:33.890Z,9.418281
2022-08-20T01:07:33.878Z,9.418264
2022-08-20T01:08:33.882Z,9.418284
2022-08-20T01:09:57.662Z,9.418229
2022-08-20T01:10:34.863Z,9.418225
2022-08-20T01:11:37.137Z,9.418273
2022-08-20T01:12:33.843Z,9.418240
2022-08-20T01:13:33.838Z,9.418288
2022-08-20T01:14:33.838Z,9.418280
2022-08-20T01:15:33.822Z,9.418285
2022-08-20T01:16:33.834Z,9.418326
2022-08-20T01:17:33.814Z,9.418359
2022-08-20T01:18:33.814Z,9.418326
2022-08-20T01:19:33.810Z,9.418302
2022-08-20T01:20:33.799Z,9.418241
2022-08-20T01:21:33.807Z,9.418267
2022-08-20T01:22:33.790Z,9.418303
2022-08-20T01:23:33.790Z,9.418262
2022-08-20T01:24:33.763Z,9.418222
2022-08-20T01:25:33.770Z,9.418252
2022-08-20T01:26:33.763Z,9.418277
2022-08-20T01:27:33.762Z,9.418277
2022-08-20T01:28:34.751Z,9.418306
2022-08-20T01:29:33.742Z,9.418302
2022-08-20T01:30:33.736Z,9.418293
2022-08-20T01:31:33.726Z,9.418262
2022-08-20T01:32:33.734Z,9.418257
2022-08-20T01:33:33.710Z,9.418233
2022-08-20T01:34:33.722Z,9.418268
2022-08-20T01:35:33.707Z,9.418272
2022-08-20T01:36:33.699Z,9.418247
2022-08-20T01:37:33.706Z,9.418245
2022-08-20T01:38:33.693Z,9.418246
2022-08-20T01:39:33.767Z,9.418243
2022-08-20T01:40:33.670Z,9.418232
2022-08-20T01:41:33.669Z,9.418268
2022-08-20T01:42:33.659Z,9.418273
2022-08-20T01:43:37.025Z,9.418288
2022-08-20T01:44:33.658Z,9.418296
2022-08-20T01:45:33.646Z,9.418316
2022-08-20T01:46:33.622Z,9.418255
2022-08-20T01:47:35.348Z,9.418288
2022-08-20T01:48:34.643Z,9.418273
2022-08-20T01:49:33.618Z,9.418297
2022-08-20T01:50:33.605Z,9.418261
2022-08-20T01:51:33.599Z,9.418239
2022-08-20T01:52:33.591Z,9.418260
2022-08-20T01:53:33.602Z,9.418273
2022-08-20T01:54:33.590Z,9.418292
2022-08-20T01:55:33.566Z,9.418281
2022-08-20T01:56:33.570Z,9.418220
2022-08-20T01:57:33.562Z,9.418280
2022-08-20T01:58:33.549Z,9.418273
2022-08-20T01:59:33.542Z,9.418209
2022-08-20T02:00:33.546Z,9.418200
2022-08-20T02:01:46.512Z,9.418198
2022-08-20T02:02:34.525Z,9.418214
2022-08-20T02:03:38.024Z,9.418235
2022-08-20T02:04:35.514Z,9.418264
2022-08-20T02:05:33.508Z,9.418286
2022-08-20T02:06:33.517Z,9.418236
2022-08-20T02:07:33.493Z,9.418285
2022-08-20T02:08:33.488Z,9.418225
2022-08-20T02:09:33.473Z,9.418374
2022-08-20T02:10:33.473Z,9.418359
2022-08-20T02:11:33.479Z,9.418356
2022-08-20T02:12:33.474Z,9.418160
2022-08-20T02:13:33.453Z,9.418320
2022-08-20T02:14:33.449Z,9.418103
2022-08-20T02:15:37.248Z,9.418106
2022-08-20T02:16:33.441Z,9.418200
2022-08-20T02:17:33.438Z,9.418280
2022-08-20T02:18:33.420Z,9.418384
2022-08-20T02:19:33.421Z,9.418261
2022-08-20T02:20:33.418Z,9.418195
2022-08-20T02:21:33.416Z,9.418152
2022-08-20T02:22:33.409Z,9.418118
2022-08-20T02:23:33.385Z,9.418375
2022-08-20T02:24:33.395Z,9.418263
2022-08-20T02:25:33.384Z,9.418265
2022-08-20T02:26:33.378Z,9.418237
2022-08-20T02:27:33.398Z,9.418352
2022-08-20T02:28:33.369Z,9.418301
2022-08-20T02:29:33.359Z,9.418330
2022-08-20T02:30:33.347Z,9.418345
2022-08-20T02:31:35.073Z,9.418310
2022-08-20T02:32:34.529Z,9.418241
2022-08-20T02:33:33.351Z,9.418219
2022-08-20T02:34:33.318Z,9.418301
2022-08-20T02:35:33.867Z,9.418285
2022-08-20T02:36:33.305Z,9.418265
2022-08-20T02:37:33.312Z,9.418230
2022-08-20T02:38:33.305Z,9.418250
2022-08-20T02:39:33.359Z,9.418235
2022-08-20T02:40:33.282Z,9.418325
2022-08-20T02:41:33.273Z,9.418363
2022-08-20T02:42:33.266Z,9.418255
2022-08-20T02:43:33.274Z,9.418247
2022-08-20T02:44:33.255Z,9.418218
2022-08-20T02:45:33.242Z,9.418298
2022-08-20T02:46:33.230Z,9.418247
2022-08-20T02:47:33.238Z,9.418245
2022-08-20T02:48:33.250Z,9.418191
2022-08-20T02:49:33.223Z,9.418237
2022-08-20T02:50:33.214Z,9.418260
2022-08-20T02:51:33.205Z,9.418252
2022-08-20T02:52:33.194Z,9.418278
2022-08-20T02:53:33.201Z,9.418213
2022-08-20T02:54:33.185Z,9.418241
2022-08-20T02:55:33.178Z,9.418204
2022-08-20T02:56:33.177Z,9.418246
2022-08-20T02:57:33.165Z,9.418261
2022-08-20T02:58:33.158Z,9.418256
2022-08-20T02:59:33.169Z,9.418248
2022-08-20T03:00:37.945Z,9.418281
2022-08-20T03:01:34.179Z,9.418234
2022-08-20T03:02:33.135Z,9.418276
2022-08-20T03:03:33.130Z,9.418208
2022-08-20T03:04:33.129Z,9.418349
2022-08-20T03:05:33.117Z,9.418244
2022-08-20T03:06:33.111Z,9.418287
2022-08-20T03:07:33.106Z,9.418314
2022-08-20T03:08:33.090Z,9.418267
2022-08-20T03:09:33.078Z,9.418332
2022-08-20T03:10:33.085Z,9.418319
2022-08-20T03:11:33.069Z,9.418252
2022-08-20T03:12:33.065Z,9.418173
2022-08-20T03:13:33.067Z,9.418109
2022-08-20T03:14:33.049Z,9.418180
2022-08-20T03:15:33.053Z,9.418262
2022-08-20T03:16:33.030Z,9.418379
2022-08-20T03:17:33.035Z,9.418382
2022-08-20T03:18:33.033Z,9.418438
2022-08-20T03:19:33.021Z,9.418303
2022-08-20T03:20:33.018Z,9.418246
2022-08-20T03:21:33.010Z,9.418403
2022-08-20T03:22:32.993Z,9.418403
2022-08-20T03:23:32.998Z,9.418501
2022-08-20T03:24:32.986Z,9.418258
2022-08-20T03:25:32.965Z,9.418219
2022-08-20T03:26:32.969Z,9.418344
2022-08-20T03:27:36.301Z,9.418331
2022-08-20T03:28:32.986Z,9.418372
2022-08-20T03:29:32.945Z,9.418221
2022-08-20T03:30:32.946Z,9.418280
2022-08-20T03:31:32.937Z,9.418254
2022-08-20T03:32:32.935Z,9.418313
2022-08-20T03:33:32.941Z,9.418232
2022-08-20T03:34:32.918Z,9.418277
2022-08-20T03:35:32.924Z,9.418265
2022-08-20T03:36:32.913Z,9.418245
2022-08-20T03:37:32.897Z,9.418187
2022-08-20T03:38:33.586Z,9.418184
2022-08-20T03:39:32.974Z,9.418190
2022-08-20T03:40:32.890Z,9.418201
2022-08-20T03:41:32.873Z,9.418200
2022-08-20T03:42:32.869Z,9.418144
2022-08-20T03:43:32.861Z,9.418246
2022-08-20T03:44:32.857Z,9.418253
2022-08-20T03:45:32.846Z,9.418176
2022-08-20T03:46:32.857Z,9.418115
2022-08-20T03:47:32.842Z,9.418084
2022-08-20T03:48:32.823Z,9.418219
2022-08-20T03:49:32.820Z,9.418134
2022-08-20T03:50:32.809Z,9.418149
2022-08-20T03:51:43.466Z,9.418145
2022-08-20T03:52:33.805Z,9.418370
2022-08-20T03:53:32.797Z,9.418286
2022-08-20T03:54:32.775Z,9.418354
2022-08-20T03:55:32.785Z,9.418180
2022-08-20T03:56:32.793Z,9.418381
2022-08-20T03:57:32.770Z,9.418406
2022-08-20T03:58:35.963Z,9.418261
2022-08-20T03:59:32.757Z,9.418263
2022-08-20T04:00:32.751Z,9.418150
2022-08-20T04:01:45.733Z,9.418303
2022-08-20T04:02:33.741Z,9.418272
2022-08-20T04:03:32.738Z,9.418361
2022-08-20T04:04:32.726Z,9.418462
2022-08-20T04:05:32.717Z,9.418451
2022-08-20T04:06:32.714Z,9.418406
2022-08-20T04:07:32.722Z,9.418360
2022-08-20T04:08:32.709Z,9.418219
2022-08-20T04:09:32.689Z,9.418157
2022-08-20T04:10:32.685Z,9.418255
2022-08-20T04:11:32.678Z,9.418263
2022-08-20T04:12:32.693Z,9.418291
2022-08-20T04:13:32.657Z,9.418262
2022-08-20T04:14:32.657Z,9.418276
2022-08-20T04:15:32.648Z,9.418170
2022-08-20T04:16:32.650Z,9.418244
2022-08-20T04:17:32.646Z,9.418221
2022-08-20T04:18:32.641Z,9.418160
2022-08-20T04:19:34.355Z,9.418207
2022-08-20T04:20:33.622Z,9.418260
2022-08-20T04:21:33.297Z,9.418240
2022-08-20T04:22:32.607Z,9.418243
2022-08-20T04:23:32.607Z,9.418145
2022-08-20T04:24:32.790Z,9.418323
2022-08-20T04:25:35.772Z,9.418324
2022-08-20T04:26:32.581Z,9.418240
2022-08-20T04:27:32.575Z,9.418239
2022-08-20T04:28:32.578Z,9.418259
2022-08-20T04:29:32.823Z,9.418222
2022-08-20T04:30:32.569Z,9.418429
2022-08-20T04:31:32.550Z,9.418359
2022-08-20T04:32:32.537Z,9.418395
2022-08-20T04:33:34.008Z,9.418361
2022-08-20T04:34:32.521Z,9.418360
2022-08-20T04:35:32.532Z,9.418199
2022-08-20T04:36:32.513Z,9.418235
2022-08-20T04:37:32.510Z,9.418173
2022-08-20T04:38:47.892Z,9.418140
2022-08-20T04:39:33.523Z,9.418227
2022-08-20T04:40:32.497Z,9.418279
2022-08-20T04:41:32.482Z,9.418144
2022-08-20T04:42:32.468Z,9.418182
2022-08-20T04:43:32.467Z,9.418368
2022-08-20T04:44:32.453Z,9.418385
2022-08-20T04:45:32.444Z,9.418354
2022-08-20T04:46:32.449Z,9.418255
2022-08-20T04:47:34.458Z,9.418303
2022-08-20T04:48:32.420Z,9.418280
2022-08-20T04:49:32.422Z,9.418246
2022-08-20T04:50:32.413Z,9.418323
2022-08-20T04:51:32.427Z,9.418364
2022-08-20T04:52:32.443Z,9.418346
2022-08-20T04:53:32.398Z,9.418308
2022-08-20T04:54:32.390Z,9.418323
2022-08-20T04:55:32.386Z,9.418409
2022-08-20T04:56:32.398Z,9.418397
2022-08-20T04:57:32.369Z,9.418331
2022-08-20T04:58:32.369Z,9.418314
2022-08-20T04:59:32.362Z,9.418302
2022-08-20T05:00:32.345Z,9.418231
2022-08-20T05:01:32.392Z,9.418225
2022-08-20T05:02:32.361Z,9.418220
2022-08-20T05:03:32.321Z,9.418346
2022-08-20T05:04:32.330Z,9.418287
2022-08-20T05:05:32.313Z,9.418326
2022-08-20T05:06:32.313Z,9.418268
2022-08-20T05:07:32.354Z,9.418297
2022-08-20T05:08:32.301Z,9.418291
2022-08-20T05:09:32.282Z,9.418282
2022-08-20T05:10:33.285Z,9.418287
2022-08-20T05:11:33.854Z,9.418295
2022-08-20T05:12:32.273Z,9.418233
2022-08-20T05:13:32.293Z,9.418305
2022-08-20T05:14:32.257Z,9.418282
2022-08-20T05:15:32.249Z,9.418390
2022-08-20T05:16:32.244Z,9.418354
2022-08-20T05:17:32.241Z,9.418261
2022-08-20T05:18:32.236Z,9.418306
2022-08-20T05:19:34.802Z,9.418239
2022-08-20T05:20:33.220Z,9.418268
2022-08-20T05:21:32.205Z,9.418314
2022-08-20T05:22:32.192Z,9.418291
2022-08-20T05:23:32.193Z,9.418277
2022-08-20T05:24:32.201Z,9.418287
2022-08-20T05:25:32.180Z,9.418257
2022-08-20T05:26:32.180Z,9.418244
2022-08-20T05:27:32.168Z,9.418278
2022-08-20T05:28:32.165Z,9.418232
2022-08-20T05:29:32.169Z,9.418230
2022-08-20T05:30:32.153Z,9.418236
2022-08-20T05:31:33.293Z,9.418251
2022-08-20T05:32:33.141Z,9.418273
2022-08-20T05:33:33.125Z,9.418293
2022-08-20T05:34:32.132Z,9.418331
2022-08-20T05:35:32.118Z,9.418325
2022-08-20T05:36:32.112Z,9.418283
2022-08-20T05:37:32.187Z,9.418324
2022-08-20T05:38:32.096Z,9.418266
2022-08-20T05:39:35.469Z,9.418236
2022-08-20T05:40:34.081Z,9.418243
2022-08-20T05:41:32.097Z,9.418271
2022-08-20T05:42:32.073Z,9.418236
2022-08-20T05:43:32.057Z,9.418270
2022-08-20T05:44:32.059Z,9.418290
2022-08-20T05:45:32.048Z,9.418279
2022-08-20T05:46:32.250Z,9.418239
2022-08-20T05:47:32.046Z,9.418316
2022-08-20T05:48:33.025Z,9.418270
2022-08-20T05:49:32.052Z,9.418296
2022-08-20T05:50:32.021Z,9.418245
2022-08-20T05:51:32.017Z,9.418324
2022-08-20T05:52:32.006Z,9.418278
2022-08-20T05:53:31.998Z,9.418255
2022-08-20T05:54:31.997Z,9.418228
2022-08-20T05:55:31.986Z,9.418248
2022-08-20T05:56:31.984Z,9.418233
2022-08-20T05:57:31.977Z,9.418234
2022-08-20T05:58:31.970Z,9.418207
2022-08-20T05:59:31.964Z,9.418260
2022-08-20T06:00:31.953Z,9.418214
2022-08-20T06:01:32.062Z,9.418220
2022-08-20T06:02:31.937Z,9.418309
2022-08-20T06:03:31.919Z,9.418184
2022-08-20T06:04:31.949Z,9.418264
2022-08-20T06:05:31.916Z,9.418270
2022-08-20T06:06:45.250Z,9.418269
2022-08-20T06:07:32.905Z,9.418303
2022-08-20T06:08:31.902Z,9.418249
2022-08-20T06:09:32.789Z,9.418202
2022-08-20T06:10:32.884Z,9.418229
2022-08-20T06:11:36.850Z,9.418242
2022-08-20T06:12:33.868Z,9.418294
2022-08-20T06:13:31.868Z,9.418275
2022-08-20T06:14:31.879Z,9.418258
2022-08-20T06:15:31.852Z,9.418319
2022-08-20T06:16:31.840Z,9.418278
2022-08-20T06:17:34.753Z,9.418268
2022-08-20T06:18:32.835Z,9.418271
2022-08-20T06:19:32.519Z,9.418343
2022-08-20T06:20:31.821Z,9.418313
2022-08-20T06:21:31.816Z,9.418317
2022-08-20T06:22:31.811Z,9.418357
2022-08-20T06:23:43.654Z,9.418267
2022-08-20T06:24:32.804Z,9.418208
2022-08-20T06:25:34.956Z,9.418326
2022-08-20T06:26:33.784Z,9.418247
2022-08-20T06:27:31.772Z,9.418213
2022-08-20T06:28:31.772Z,9.418246
2022-08-20T06:29:31.785Z,9.418308
2022-08-20T06:30:31.761Z,9.418303
2022-08-20T06:31:31.756Z,9.418223
2022-08-20T06:32:32.896Z,9.418133
2022-08-20T06:33:31.746Z,9.418149
2022-08-20T06:34:31.744Z,9.418115
2022-08-20T06:35:31.715Z,9.418046
2022-08-20T06:36:31.728Z,9.418069
2022-08-20T06:37:31.894Z,9.418183
2022-08-20T06:38:31.705Z,9.418116
2022-08-20T06:39:31.720Z,9.418153
2022-08-20T06:40:31.696Z,9.418168
2022-08-20T06:41:35.827Z,9.418148
2022-08-20T06:42:31.680Z,9.418161
2022-08-20T06:43:31.672Z,9.418103
2022-08-20T06:44:31.684Z,9.418114
2022-08-20T06:45:31.666Z,9.418182
2022-08-20T06:46:31.660Z,9.418173
2022-08-20T06:47:31.652Z,9.418224
2022-08-20T06:48:31.648Z,9.418224
2022-08-20T06:49:34.209Z,9.418206
2022-08-20T06:50:31.629Z,9.418223
2022-08-20T06:51:31.628Z,9.418221
2022-08-20T06:52:52.242Z,9.418214
2022-08-20T06:53:32.612Z,9.418172
2022-08-20T06:54:31.624Z,9.418186
2022-08-20T06:55:31.603Z,9.418184
2022-08-20T06:56:31.600Z,9.418221
2022-08-20T06:57:31.596Z,9.418172
2022-08-20T06:58:38.463Z,9.418143
2022-08-20T06:59:31.580Z,9.418139
2022-08-20T07:00:31.604Z,9.418125
2022-08-20T07:01:31.611Z,9.418158
2022-08-20T07:02:31.557Z,9.418178
2022-08-20T07:03:31.556Z,9.418117
2022-08-20T07:04:31.544Z,9.418166
2022-08-20T07:05:31.541Z,9.418093
2022-08-20T07:06:31.541Z,9.418164
2022-08-20T07:07:31.538Z,9.418189
2022-08-20T07:08:31.519Z,9.418131
2022-08-20T07:09:31.510Z,9.418154
2022-08-20T07:10:31.513Z,9.418212
2022-08-20T07:11:31.508Z,9.418193
2022-08-20T07:12:31.520Z,9.418216
2022-08-20T07:13:31.486Z,9.418224
2022-08-20T07:14:31.479Z,9.418242
2022-08-20T07:15:31.476Z,9.418218
2022-08-20T07:16:31.467Z,9.418191
2022-08-20T07:17:31.480Z,9.418258
2022-08-20T07:18:31.459Z,9.418121
2022-08-20T07:19:31.454Z,9.418246
2022-08-20T07:20:31.443Z,9.418290
2022-08-20T07:21:31.439Z,9.418271
2022-08-20T07:22:31.432Z,9.418252
2022-08-20T07:23:31.446Z,9.418170
2022-08-20T07:24:32.886Z,9.418247
2022-08-20T07:25:31.417Z,9.418215
2022-08-20T07:26:31.409Z,9.418325
2022-08-20T07:27:31.395Z,9.418198
2022-08-20T07:28:31.407Z,9.418088
2022-08-20T07:29:31.387Z,9.418147
2022-08-20T07:30:31.382Z,9.418154
2022-08-20T07:31:31.614Z,9.418138
2022-08-20T07:32:31.367Z,9.418089
2022-08-20T07:33:32.366Z,9.418182
2022-08-20T07:34:32.343Z,9.418160
2022-08-20T07:35:31.373Z,9.418171
2022-08-20T07:36:31.341Z,9.418161
2022-08-20T07:37:31.332Z,9.418147
2022-08-20T07:38:31.322Z,9.418113
2022-08-20T07:39:31.323Z,9.418078
2022-08-20T07:40:31.371Z,9.418134
2022-08-20T07:41:31.304Z,9.418164
2022-08-20T07:42:31.295Z,9.418177
2022-08-20T07:43:31.287Z,9.418127
2022-08-20T07:44:31.459Z,9.418190
2022-08-20T07:45:31.288Z,9.418340
2022-08-20T07:46:31.664Z,9.418283
2022-08-20T07:47:31.264Z,9.418293
2022-08-20T07:48:32.463Z,9.418247
2022-08-20T07:49:31.296Z,9.418203
2022-08-20T07:50:31.247Z,9.418163
2022-08-20T07:51:31.239Z,9.418185
2022-08-20T07:52:31.247Z,9.418181
2022-08-20T07:53:35.208Z,9.418138
2022-08-20T07:54:32.244Z,9.418155
2022-08-20T07:55:31.211Z,9.418137
2022-08-20T07:56:31.201Z,9.418170
2022-08-20T07:57:31.195Z,9.418142
2022-08-20T07:58:33.352Z,9.418175
2022-08-20T07:59:31.186Z,9.418089
2022-08-20T08:00:31.219Z,9.418033
2022-08-20T08:01:31.193Z,9.418083
2022-08-20T08:02:31.155Z,9.418186
2022-08-20T08:03:40.896Z,9.418182
2022-08-20T08:04:32.139Z,9.418107
2022-08-20T08:05:31.168Z,9.418001
2022-08-20T08:06:31.779Z,9.418129
2022-08-20T08:07:32.163Z,9.418157
2022-08-20T08:08:31.120Z,9.418173
2022-08-20T08:09:31.111Z,9.418169
2022-08-20T08:10:31.124Z,9.418178
2022-08-20T08:11:31.116Z,9.418216
2022-08-20T08:12:31.103Z,9.418426
2022-08-20T08:13:31.092Z,9.418285
2022-08-20T08:14:31.882Z,9.418282
2022-08-20T08:15:31.084Z,9.418206
2022-08-20T08:16:31.080Z,9.418288
2022-08-20T08:17:31.055Z,9.418277
2022-08-20T08:18:32.002Z,9.418248
2022-08-20T08:19:32.051Z,9.418217
2022-08-20T08:20:31.048Z,9.418203
2022-08-20T08:21:31.056Z,9.418162
2022-08-20T08:22:31.050Z,9.418248
2022-08-20T08:23:31.717Z,9.418242
2022-08-20T08:24:31.010Z,9.418189
2022-08-20T08:25:31.038Z,9.418220
2022-08-20T08:26:31.010Z,9.418303
2022-08-20T08:27:31.054Z,9.418242
2022-08-20T08:28:30.998Z,9.418308
2022-08-20T08:29:31.002Z,9.418324
2022-08-20T08:30:30.981Z,9.418288
2022-08-20T08:31:30.978Z,9.418321
2022-08-20T08:32:30.981Z,9.418338
2022-08-20T08:33:30.955Z,9.418261
2022-08-20T08:34:30.976Z,9.418267
2022-08-20T08:35:30.933Z,9.418215
2022-08-20T08:36:30.936Z,9.418197
2022-08-20T08:37:31.163Z,9.418220
2022-08-20T08:38:30.924Z,9.418280
2022-08-20T08:39:33.419Z,9.418242
2022-08-20T08:40:30.918Z,9.418218
2022-08-20T08:41:30.905Z,9.418201
2022-08-20T08:42:30.905Z,9.418206
2022-08-20T08:43:31.844Z,9.418240
2022-08-20T08:44:30.925Z,9.418252
2022-08-20T08:45:30.876Z,9.418224
2022-08-20T08:46:30.868Z,9.418228
2022-08-20T08:47:30.862Z,9.418265
2022-08-20T08:48:30.860Z,9.418261
2022-08-20T08:49:37.863Z,9.418232
2022-08-20T08:50:53.622Z,9.418252
2022-08-20T08:51:32.842Z,9.418209
2022-08-20T08:52:30.824Z,9.418215
2022-08-20T08:53:30.815Z,9.418202
2022-08-20T08:54:30.824Z,9.418157
2022-08-20T08:55:30.832Z,9.418167
2022-08-20T08:56:30.795Z,9.418182
2022-08-20T08:57:31.800Z,9.418201
2022-08-20T08:58:30.789Z,9.418222
2022-08-20T08:59:52.213Z,9.418196
2022-08-20T09:00:31.792Z,9.418194
2022-08-20T09:01:53.807Z,9.418185
2022-08-20T09:02:31.870Z,9.418212
2022-08-20T09:03:30.769Z,9.418197
2022-08-20T09:04:30.768Z,9.418193
2022-08-20T09:05:30.755Z,9.418239
2022-08-20T09:06:30.740Z,9.418267
2022-08-20T09:07:30.747Z,9.418278
2022-08-20T09:08:30.729Z,9.418309
2022-08-20T09:09:30.739Z,9.418229
2022-08-20T09:10:30.736Z,9.418266
2022-08-20T09:11:30.796Z,9.418271
2022-08-20T09:12:30.708Z,9.418244
2022-08-20T09:13:30.704Z,9.418246
2022-08-20T09:14:30.695Z,9.418281
2022-08-20T09:15:30.692Z,9.418274
2022-08-20T09:16:37.388Z,9.418270
2022-08-20T09:17:31.679Z,9.418249
2022-08-20T09:18:30.680Z,9.418231
2022-08-20T09:19:30.661Z,9.418255
2022-08-20T09:20:31.664Z,9.418242
2022-08-20T09:21:30.656Z,9.418201
2022-08-20T09:22:30.673Z,9.418277
2022-08-20T09:23:30.639Z,9.418250
2022-08-20T09:24:30.635Z,9.418229
2022-08-20T09:25:30.641Z,9.418233
2022-08-20T09:26:30.636Z,9.418275
2022-08-20T09:27:30.621Z,9.418274
2022-08-20T09:28:32.459Z,9.418255
2022-08-20T09:29:30.607Z,9.418259
2022-08-20T09:30:30.603Z,9.418245
2022-08-20T09:31:30.630Z,9.418248
2022-08-20T09:32:30.596Z,9.418259
2022-08-20T09:33:30.575Z,9.418269
2022-08-20T09:34:30.654Z,9.418316
2022-08-20T09:35:30.580Z,9.418303
2022-08-20T09:36:32.628Z,9.418291
2022-08-20T09:37:35.105Z,9.418303
2022-08-20T09:38:31.561Z,9.418292
2022-08-20T09:39:30.543Z,9.418296
2022-08-20T09:40:30.542Z,9.418281
2022-08-20T09:41:30.598Z,9.418266
2022-08-20T09:42:30.579Z,9.418256
2022-08-20T09:43:30.522Z,9.418224
2022-08-20T09:44:30.518Z,9.418239
2022-08-20T09:45:30.503Z,9.418237
2022-08-20T09:46:30.507Z,9.418248
2022-08-20T09:47:30.514Z,9.418232
2022-08-20T09:48:31.906Z,9.418279
2022-08-20T09:49:30.483Z,9.418275
2022-08-20T09:50:30.475Z,9.418262
2022-08-20T09:51:30.470Z,9.418285
2022-08-20T09:52:30.494Z,9.418318
2022-08-20T09:53:30.458Z,9.418316
2022-08-20T09:54:30.448Z,9.418271
2022-08-20T09:55:30.448Z,9.418258
2022-08-20T09:56:30.439Z,9.418229
2022-08-20T09:57:30.439Z,9.418303
2022-08-20T09:58:30.430Z,9.418319
2022-08-20T09:59:30.427Z,9.418310
2022-08-20T10:00:30.418Z,9.418242
2022-08-20T10:01:30.427Z,9.418218
2022-08-20T10:02:30.432Z,9.418231
2022-08-20T10:03:30.390Z,9.418256
2022-08-20T10:04:30.388Z,9.418242
2022-08-20T10:05:30.382Z,9.418290
2022-08-20T10:06:34.500Z,9.418283
2022-08-20T10:07:31.382Z,9.418240
2022-08-20T10:08:30.379Z,9.418367
2022-08-20T10:09:30.361Z,9.418206
2022-08-20T10:10:30.342Z,9.418230
2022-08-20T10:11:30.354Z,9.418237
2022-08-20T10:12:30.341Z,9.418267
2022-08-20T10:13:30.353Z,9.418307
2022-08-20T10:14:30.333Z,9.418346
2022-08-20T10:15:30.317Z,9.418313
2022-08-20T10:16:30.316Z,9.418276
2022-08-20T10:17:30.309Z,9.418344
2022-08-20T10:18:30.312Z,9.418314
2022-08-20T10:19:30.305Z,9.418283
2022-08-20T10:20:30.293Z,9.418262
2022-08-20T10:21:30.284Z,9.418412
2022-08-20T10:22:30.277Z,9.418256
2022-08-20T10:23:30.279Z,9.418274
2022-08-20T10:24:30.289Z,9.418257
2022-08-20T10:25:30.264Z,9.418264
2022-08-20T10:26:30.248Z,9.418283
2022-08-20T10:27:30.255Z,9.418229
2022-08-20T10:28:30.240Z,9.418263
2022-08-20T10:29:30.261Z,9.418269
2022-08-20T10:30:30.229Z,9.418272
2022-08-20T10:31:30.224Z,9.418277
2022-08-20T10:32:30.220Z,9.418251
2022-08-20T10:33:30.218Z,9.418240
2022-08-20T10:34:30.212Z,9.418277
2022-08-20T10:35:30.227Z,9.418292
2022-08-20T10:36:30.200Z,9.418304
2022-08-20T10:37:30.204Z,9.418336
2022-08-20T10:38:30.197Z,9.418311
2022-08-20T10:39:31.522Z,9.418329
2022-08-20T10:40:30.188Z,9.418333
2022-08-20T10:41:30.178Z,9.418284
2022-08-20T10:42:30.181Z,9.418277
2022-08-20T10:43:30.160Z,9.418320
2022-08-20T10:44:30.173Z,9.418277
2022-08-20T10:45:30.148Z,9.418277
2022-08-20T10:46:30.136Z,9.418309
2022-08-20T10:47:30.133Z,9.418283
2022-08-20T10:48:30.127Z,9.418283
2022-08-20T10:49:30.145Z,9.418311
2022-08-20T10:50:30.679Z,9.418316
2022-08-20T10:51:32.508Z,9.418355
2022-08-20T10:52:30.108Z,9.418340
2022-08-20T10:53:30.109Z,9.418365
2022-08-20T10:54:30.117Z,9.418318
2022-08-20T10:55:30.109Z,9.418285
2022-08-20T10:56:30.088Z,9.418334
2022-08-20T10:57:30.088Z,9.418348
2022-08-20T10:58:39.719Z,9.418363
2022-08-20T10:59:31.078Z,9.418311
2022-08-20T11:00:30.072Z,9.418339
2022-08-20T11:01:33.851Z,9.418322
2022-08-20T11:02:31.148Z,9.418324
2022-08-20T11:03:30.060Z,9.418356
2022-08-20T11:04:30.060Z,9.418273
2022-08-20T11:05:30.036Z,9.418283
2022-08-20T11:06:30.035Z,9.418304
2022-08-20T11:07:50.531Z,9.418305
2022-08-20T11:08:34.680Z,9.418323
2022-08-20T11:09:30.016Z,9.418295
2022-08-20T11:10:30.018Z,9.418320
2022-08-20T11:11:30.020Z,9.418306
2022-08-20T11:12:30.016Z,9.418359
2022-08-20T11:13:29.992Z,9.418292
2022-08-20T11:14:29.989Z,9.418336
2022-08-20T11:15:29.980Z,9.418303
2022-08-20T11:16:29.975Z,9.418252
2022-08-20T11:17:29.972Z,9.418260
2022-08-20T11:18:29.960Z,9.418308
2022-08-20T11:19:30.958Z,9.418288
2022-08-20T11:20:29.957Z,9.418318
2022-08-20T11:21:29.949Z,9.418338
2022-08-20T11:22:29.944Z,9.418336
2022-08-20T11:23:30.470Z,9.418308
2022-08-20T11:24:29.932Z,9.418341
2022-08-20T11:25:29.924Z,9.418166
2022-08-20T11:26:29.916Z,9.418176
2022-08-20T11:27:29.918Z,9.418248
2022-08-20T11:28:31.344Z,9.418340
2022-08-20T11:29:33.778Z,9.418356
2022-08-20T11:30:30.895Z,9.418335
2022-08-20T11:31:29.889Z,9.418264
2022-08-20T11:32:29.884Z,9.418401
2022-08-20T11:33:29.895Z,9.418311
2022-08-20T11:34:29.864Z,9.418282
2022-08-20T11:35:48.909Z,9.418327
2022-08-20T11:36:31.859Z,9.418332
2022-08-20T11:37:29.844Z,9.418280
2022-08-20T11:38:29.852Z,9.418271
2022-08-20T11:39:29.860Z,9.418253
2022-08-20T11:40:29.867Z,9.418209
2022-08-20T11:41:29.831Z,9.418150
2022-08-20T11:42:29.813Z,9.418237
2022-08-20T11:43:30.820Z,9.418234
2022-08-20T11:44:29.820Z,9.418154